Weather at Bowlin Airport

Public forecast

Using degrees Fahrenheit for public forecast. Weather courtesy of forecast.io.

Closest aviation weather report (METAR) to Bowlin Airport

Closest report is Huntington Municipal Airport, 1.5 nm (2.8 km) NE. Retrieved 2020/10/26 15:35 UTC (16 minutes ago):

KHHG 261535Z AUTO 36007KT 10SM SCT030 BKN036 OVC042 07/01 A3019 RMK AO2 T00700011

Closest aviation forecast (TAF) to Bowlin Airport

Closest forecast is Fort Wayne International Airport, 15.6 nm (28.9 km) ENE. Retrieved 2020/10/26 12:22 UTC (3 hours ago):

TAF KFWA 261120Z 2612/2712 35008KT P6SM OVC050 FM262100 33007KT P6SM VCSH OVC035 FM270600 31004KT P6SM OVC040